| time (UTC) | temp C | wind direction | speed KPH | gust KPH | rain 1hr cm | rain 24hr cm | rain mn cm | humidity % | barometer mb |
| 20260509162018 | 28 | 290 | 8.0 | 12.9 | 0.00 | 0.10 | 0.00 | 56 | 1012.6 |
| 20260509161020 | 28 | 275 | 8.0 | 14.5 | 0.00 | 0.10 | 0.00 | 55 | 1012.7 |
| 20260509160019 | 27 | 285 | 6.4 | 11.3 | 0.00 | 0.10 | 0.00 | 55 | 1012.6 |
| 20260509155022 | 27 | 299 | 8.0 | 12.9 | 0.00 | 0.10 | 0.00 | 56 | 1012.5 |
| 20260509154026 | 27 | 300 | 8.0 | 17.7 | 0.00 | 0.10 | 0.00 | 57 | 1012.6 |
| 20260509153054 | 27 | 273 | 14.5 | 19.3 | 0.00 | 0.10 | 0.00 | 56 | 1012.5 |
| 20260509152026 | 27 | 296 | 11.3 | 16.1 | 0.00 | 0.10 | 0.00 | 59 | 1012.5 |
| 20260509151024 | 26 | 265 | 8.0 | 12.9 | 0.00 | 0.10 | 0.00 | 64 | 1012.5 |
| 20260509150035 | 26 | 301 | 9.7 | 16.1 | 0.00 | 0.10 | 0.00 | 65 | 1012.5 |
| 20260509145018 | 26 | 299 | 8.0 | 12.9 | 0.00 | 0.10 | 0.00 | 70 | 1012.6 |
| 20260509144016 | 25 | 291 | 4.8 | 9.7 | 0.00 | 0.10 | 0.00 | 72 | 1012.7 |
| 20260509143025 | 25 | 276 | 6.4 | 14.5 | 0.00 | 0.10 | 0.00 | 73 | 1012.7 |
| 20260509142028 | 25 | 320 | 6.4 | 11.3 | 0.00 | 0.10 | 0.00 | 75 | 1012.7 |
| 20260509141032 | 24 | 311 | 6.4 | 11.3 | 0.00 | 0.10 | 0.00 | 78 | 1012.7 |
| 20260509140057 | 23 | 306 | 6.4 | 9.7 | 0.00 | 0.10 | 0.00 | 80 | 1012.7 |
| 20260509135025 | 23 | 281 | 4.8 | 8.0 | 0.00 | 0.10 | 0.00 | 81 | 1012.5 |
| 20260509134024 | 23 | 300 | 8.0 | 12.9 | 0.00 | 0.10 | 0.00 | 81 | 1012.5 |
| 20260509133047 | 22 | 321 | 6.4 | 12.9 | 0.00 | 0.10 | 0.00 | 83 | 1012.3 |
| 20260509132030 | 22 | 293 | 11.3 | 17.7 | 0.00 | 0.10 | 0.00 | 84 | 1012.2 |
| 20260509131016 | 22 | 290 | 9.7 | 16.1 | 0.00 | 0.10 | 0.00 | 85 | 1012.2 |
| 20260509130019 | 22 | 278 | 9.7 | 16.1 | 0.00 | 0.10 | 0.00 | 86 | 1012.2 |
| 20260509125022 | 22 | 289 | 11.3 | 16.1 | 0.00 | 0.10 | 0.00 | 86 | 1012.2 |
| 20260509124045 | 21 | 239 | 6.4 | 9.7 | 0.00 | 0.10 | 0.00 | 88 | 1012.1 |
| 20260509123048 | 21 | 271 | 6.4 | 11.3 | 0.00 | 0.10 | 0.00 | 91 | 1012.1 |
| 20260509122032 | 21 | 261 | 3.2 | 6.4 | 0.00 | 0.10 | 0.00 | 92 | 1011.9 |
| 20260509121037 | 21 | 232 | 4.8 | 4.8 | 0.00 | 0.10 | 0.00 | 93 | 1011.7 |
| 20260509120041 | 20 | 228 | 3.2 | 4.8 | 0.00 | 0.10 | 0.00 | 94 | 1011.9 |
| 20260509115024 | 20 | 266 | 1.6 | 3.2 | 0.00 | 0.10 | 0.00 | 93 | 1011.7 |
| 20260509114027 | 21 | 202 | 0.0 | 3.2 | 0.00 | 0.10 | 0.00 | 93 | 1011.7 |
| 20260509113025 | 21 | 172 | 3.2 | 3.2 | 0.00 | 0.10 | 0.00 | 91 | 1011.6 |
| 20260509112016 | 21 | 174 | 6.4 | 8.0 | 0.00 | 0.10 | 0.00 | 91 | 1011.6 |
| 20260509111019 | 22 | 212 | 6.4 | 9.7 | 0.00 | 0.10 | 0.00 | 90 | 1011.7 |
| 20260509110016 | 21 | 231 | 9.7 | 12.9 | 0.00 | 0.10 | 0.00 | 91 | 1011.7 |
| 20260509105026 | 21 | 271 | 4.8 | 9.7 | 0.00 | 0.10 | 0.00 | 93 | 1011.5 |
| 20260509104029 | 21 | 284 | 3.2 | 6.4 | 0.00 | 0.10 | 0.00 | 94 | 1011.5 |
| 20260509103053 | 21 | 284 | 4.8 | 9.7 | 0.00 | 0.10 | 0.00 | 95 | 1011.5 |
| 20260509102018 | 21 | 312 | 11.3 | 14.5 | 0.00 | 0.10 | 0.00 | 97 | 1011.3 |
| 20260509101041 | 21 | 265 | 9.7 | 19.3 | 0.00 | 0.10 | 0.00 | 98 | 1011.0 |
| 20260509100024 | 20 | 218 | 8.0 | 11.3 | 0.00 | 0.10 | 0.00 | 98 | 1009.3 |
| 20260509095027 | 21 | 171 | 9.7 | 14.5 | 0.00 | 0.10 | 0.00 | 98 | 1009.0 |
| 20260509094030 | 21 | 182 | 12.9 | 19.3 | 0.00 | 0.10 | 0.00 | 98 | 1008.9 |
| 20260509093020 | 21 | 180 | 14.5 | 24.1 | 0.00 | 0.10 | 0.00 | 98 | 1008.9 |
| 20260509092024 | 21 | 154 | 14.5 | 17.7 | 0.00 | 0.10 | 0.00 | 98 | 1009.0 |
| 20260509091022 | 21 | 184 | 14.5 | 20.9 | 0.00 | 0.10 | 0.00 | 98 | 1009.1 |
| 20260509090025 | 21 | 165 | 17.7 | 24.1 | 0.00 | 0.10 | 0.00 | 98 | 1009.2 |
| 20260509085029 | 20 | 173 | 17.7 | 24.1 | 0.00 | 0.10 | 0.00 | 98 | 1009.2 |
| 20260509084032 | 20 | 161 | 12.9 | 19.3 | 0.00 | 0.10 | 0.00 | 98 | 1010.0 |
| 20260509083017 | 20 | 173 | 11.3 | 14.5 | 0.00 | 0.10 | 0.00 | 98 | 1010.4 |
| 20260509082022 | 20 | 167 | 6.4 | 11.3 | 0.00 | 0.10 | 0.00 | 98 | 1011.0 |
| 20260509081044 | 20 | 177 | 6.4 | 9.7 | 0.00 | 0.10 | 0.00 | 97 | 1011.4 |
| 20260509080028 | 20 | 183 | 8.0 | 9.7 | 0.00 | 0.10 | 0.00 | 97 | 1012.0 |
| 20260509075050 | 20 | 192 | 8.0 | 12.9 | 0.00 | 0.10 | 0.00 | 97 | 1012.2 |
| 20260509074016 | 21 | 206 | 9.7 | 14.5 | 0.00 | 0.10 | 0.00 | 97 | 1012.9 |
| 20260509073019 | 21 | 231 | 8.0 | 12.9 | 0.00 | 0.10 | 0.00 | 97 | 1013.0 |
| 20260509072016 | 21 | 245 | 4.8 | 8.0 | 0.00 | 0.10 | 0.00 | 97 | 1013.2 |
| 20260509071026 | 21 | 267 | 6.4 | 11.3 | 0.00 | 0.10 | 0.00 | 98 | 1013.3 |
| 20260509070029 | 21 | 249 | 8.0 | 9.7 | 0.00 | 0.10 | 0.00 | 98 | 1013.3 |
| 20260509065032 | 20 | 251 | 6.4 | 8.0 | 0.00 | 0.10 | 0.00 | 99 | 1013.0 |
| 20260509064018 | 20 | 207 | 3.2 | 4.8 | 0.00 | 0.10 | 0.00 | 99 | 1013.0 |
| 20260509063021 | 20 | 245 | 1.6 | 3.2 | 0.00 | 0.10 | 0.00 | 99 | 1013.2 |
| 20260509062030 | 20 | 310 | 3.2 | 4.8 | 0.00 | 0.10 | 0.00 | 99 | 1013.2 |
| 20260509061028 | 20 | 0 | 0.0 | 3.2 | 0.00 | 0.10 | 0.00 | 99 | 1013.2 |
| 20260509060031 | 20 | 324 | 4.8 | 6.4 | 0.00 | 0.10 | 0.00 | 99 | 1013.2 |
| 20260509055016 | 20 | 304 | 4.8 | 6.4 | 0.00 | 0.10 | 0.00 | 98 | 1012.9 |
| 20260509054025 | 20 | 298 | 4.8 | 6.4 | 0.00 | 0.10 | 0.00 | 97 | 1012.2 |
| 20260509053023 | 20 | 162 | 3.2 | 4.8 | 0.00 | 0.10 | 0.00 | 97 | 1012.4 |
| 20260509052027 | 20 | 0.0 | 1.6 | 0.00 | 0.10 | 0.00 | 97 | 1012.3 | |
| 20260509051050 | 21 | 193 | 0.0 | 3.2 | 0.00 | 0.10 | 0.00 | 96 | 1012.2 |
| 20260509050015 | 21 | 172 | 3.2 | 3.2 | 0.00 | 0.10 | 0.00 | 95 | 1012.1 |
| 20260509045020 | 21 | 166 | 3.2 | 6.4 | 0.00 | 0.10 | 0.10 | 94 | 1012.2 |
| 20260509044142 | 21 | 160 | 3.2 | 4.8 | 0.00 | 0.10 | 0.10 | 94 | 1012.5 |
| 20260509043025 | 21 | 103 | 1.6 | 3.2 | 0.00 | 0.10 | 0.10 | 93 | 1012.7 |
| 20260509042028 | 21 | 27 | 3.2 | 3.2 | 0.00 | 0.10 | 0.10 | 93 | 1012.6 |
| 20260509041046 | 21 | 55 | 1.6 | 3.2 | 0.00 | 0.10 | 0.10 | 92 | 1012.5 |
| 20260509040017 | 21 | 43 | 4.8 | 6.4 | 0.00 | 0.10 | 0.10 | 92 | 1012.1 |
| 20260509035020 | 21 | 142 | 1.6 | 3.2 | 0.00 | 0.10 | 0.10 | 91 | 1012.1 |
| 20260509034017 | 22 | 171 | 4.8 | 6.4 | 0.00 | 0.10 | 0.10 | 90 | 1011.7 |
| 20260509033020 | 22 | 163 | 4.8 | 6.4 | 0.00 | 0.10 | 0.10 | 90 | 1011.6 |
| 20260509032030 | 22 | 152 | 4.8 | 6.4 | 0.00 | 0.10 | 0.10 | 90 | 1011.6 |
| 20260509031016 | 22 | 150 | 3.2 | 4.8 | 0.00 | 0.10 | 0.10 | 89 | 1011.7 |
| 20260509030120 | 22 | 136 | 3.2 | 4.8 | 0.00 | 0.10 | 0.10 | 89 | 1011.2 |
| 20260509025022 | 22 | 156 | 6.4 | 8.0 | 0.00 | 0.10 | 0.10 | 89 | 1011.0 |
| 20260509024025 | 22 | 153 | 6.4 | 9.7 | 0.00 | 0.10 | 0.10 | 89 | 1011.0 |
| 20260509023029 | 22 | 165 | 4.8 | 6.4 | 0.00 | 0.10 | 0.10 | 89 | 1011.1 |
| 20260509022052 | 22 | 153 | 3.2 | 4.8 | 0.00 | 0.10 | 0.10 | 89 | 1011.1 |
| 20260509021019 | 22 | 168 | 3.2 | 4.8 | 0.00 | 0.10 | 0.10 | 89 | 1011.0 |
| 20260509020025 | 22 | 157 | 0.0 | 3.2 | 0.00 | 0.10 | 0.10 | 89 | 1011.0 |
| 20260509015110 | 22 | 139 | 0.0 | 3.2 | 0.00 | 0.10 | 0.10 | 89 | 1010.8 |
| 20260509014026 | 22 | 110 | 0.0 | 3.2 | 0.00 | 0.10 | 0.10 | 88 | 1010.8 |
| 20260509013017 | 22 | 70 | 0.0 | 3.2 | 0.00 | 0.10 | 0.10 | 88 | 1010.7 |
| 20260509012021 | 22 | 105 | 1.6 | 3.2 | 0.00 | 0.10 | 0.10 | 87 | 1010.6 |
| 20260509011019 | 22 | 102 | 1.6 | 3.2 | 0.00 | 0.10 | 0.10 | 86 | 1010.5 |
| 20260509010036 | 22 | 152 | 1.6 | 3.2 | 0.00 | 0.10 | 0.10 | 85 | 1010.3 |
| 20260509005032 | 23 | 104 | 1.6 | 3.2 | 0.00 | 0.10 | 0.10 | 83 | 1010.1 |
| 20260509004037 | 23 | 94 | 1.6 | 3.2 | 0.00 | 0.10 | 0.10 | 82 | 1010.1 |
| 20260509003100 | 23 | 112 | 3.2 | 8.0 | 0.00 | 0.10 | 0.10 | 82 | 1010.2 |
| 20260509002023 | 23 | 122 | 3.2 | 4.8 | 0.00 | 0.10 | 0.10 | 84 | 1010.3 |
| 20260509001026 | 23 | 85 | 3.2 | 3.2 | 0.00 | 0.10 | 0.10 | 83 | 1010.5 |
| 20260509000030 | 23 | 155 | 1.6 | 3.2 | 0.00 | 0.10 | 0.10 | 82 | 1010.5 |
| 20260508235015 | 23 | 158 | 4.8 | 8.0 | 0.00 | 0.10 | 0.10 | 82 | 1010.5 |
| 20260508234058 | 23 | 134 | 3.2 | 6.4 | 0.00 | 0.10 | 0.10 | 82 | 1010.5 |
| 20260508233022 | 23 | 154 | 1.6 | 4.8 | 0.00 | 0.10 | 0.10 | 83 | 1010.5 |
| 20260508232025 | 23 | 85 | 3.2 | 6.4 | 0.00 | 0.10 | 0.10 | 81 | 1010.5 |
| 20260508231053 | 23 | 116 | 3.2 | 6.4 | 0.00 | 0.10 | 0.10 | 80 | 1010.5 |
| 20260508230036 | 23 | 130 | 3.2 | 6.4 | 0.00 | 0.10 | 0.10 | 80 | 1010.5 |
| 20260508225017 | 23 | 133 | 3.2 | 8.0 | 0.00 | 0.10 | 0.10 | 81 | 1010.5 |
| 20260508224040 | 23 | 152 | 4.8 | 8.0 | 0.00 | 0.10 | 0.10 | 81 | 1010.7 |
| 20260508223023 | 23 | 154 | 3.2 | 8.0 | 0.00 | 0.10 | 0.10 | 82 | 1010.7 |
| 20260508222026 | 23 | 166 | 4.8 | 6.4 | 0.00 | 0.10 | 0.10 | 81 | 1010.7 |
| 20260508221034 | 22 | 147 | 4.8 | 9.7 | 0.00 | 0.10 | 0.10 | 84 | 1010.8 |
| 20260508220027 | 22 | 179 | 8.0 | 11.3 | 0.00 | 0.10 | 0.10 | 82 | 1011.0 |
| 20260508215018 | 21 | 201 | 6.4 | 8.0 | 0.00 | 0.10 | 0.10 | 84 | 1011.2 |
| 20260508214046 | 21 | 186 | 3.2 | 8.0 | 0.05 | 0.10 | 0.10 | 84 | 1011.4 |
| 20260508213023 | 21 | 159 | 3.2 | 4.8 | 0.10 | 0.10 | 0.10 | 85 | 1011.6 |
| 20260508212041 | 21 | 178 | 3.2 | 4.8 | 0.10 | 0.10 | 0.10 | 86 | 1011.8 |
| 20260508211031 | 20 | 204 | 3.2 | 4.8 | 0.10 | 0.10 | 0.10 | 91 | 1011.9 |
| 20260508210016 | 19 | 273 | 4.8 | 8.0 | 0.10 | 0.10 | 0.10 | 93 | 1012.2 |
| 20260508205019 | 19 | 288 | 6.4 | 17.7 | 0.10 | 0.10 | 0.10 | 93 | 1010.1 |
| 20260508204023 | 19 | 116 | 8.0 | 14.5 | 0.05 | 0.05 | 0.05 | 89 | 1011.9 |
| 20260508203026 | 20 | 123 | 4.8 | 9.7 | 0.00 | 0.00 | 0.00 | 84 | 1012.5 |
| 20260508202054 | 21 | 157 | 8.0 | 12.9 | 0.00 | 0.00 | 0.00 | 80 | 1012.7 |
| 20260508201032 | 21 | 177 | 4.8 | 9.7 | 0.00 | 0.00 | 0.00 | 77 | 1012.9 |
| 20260508200018 | 21 | 154 | 4.8 | 11.3 | 0.00 | 0.00 | 0.00 | 76 | 1013.3 |
| 20260508195021 | 21 | 145 | 9.7 | 11.3 | 0.00 | 0.00 | 0.00 | 75 | 1013.2 |
| 20260508194049 | 21 | 183 | 12.9 | 14.5 | 0.00 | 0.00 | 0.00 | 74 | 1013.0 |
| 20260508193028 | 22 | 182 | 9.7 | 12.9 | 0.00 | 0.00 | 0.00 | 73 | 1013.0 |
| 20260508192032 | 22 | 170 | 9.7 | 12.9 | 0.00 | 0.00 | 0.00 | 71 | 1013.1 |
| 20260508191016 | 21 | 159 | 11.3 | 12.9 | 0.00 | 0.00 | 0.00 | 73 | 1013.4 |
| 20260508190020 | 22 | 172 | 9.7 | 12.9 | 0.00 | 0.00 | 0.00 | 72 | 1013.4 |
| 20260508185023 | 22 | 170 | 9.7 | 12.9 | 0.00 | 0.00 | 0.00 | 72 | 1013.6 |
| 20260508184048 | 22 | 166 | 12.9 | 19.3 | 0.00 | 0.00 | 0.00 | 72 | 1013.7 |
| 20260508183032 | 22 | 155 | 9.7 | 14.5 | 0.00 | 0.00 | 0.00 | 72 | 1014.0 |
| 20260508182018 | 22 | 161 | 8.0 | 11.3 | 0.00 | 0.00 | 0.00 | 72 | 1014.0 |
| 20260508181022 | 22 | 145 | 4.8 | 14.5 | 0.00 | 0.00 | 0.00 | 70 | 1014.0 |
| 20260508180026 | 23 | 141 | 4.8 | 8.0 | 0.00 | 0.00 | 0.00 | 70 | 1014.0 |
| 20260508175024 | 22 | 95 | 6.4 | 12.9 | 0.00 | 0.00 | 0.00 | 70 | 1014.2 |
| 20260508174036 | 22 | 162 | 6.4 | 11.3 | 0.00 | 0.00 | 0.00 | 71 | 1014.5 |
| 20260508173021 | 22 | 159 | 6.4 | 11.3 | 0.00 | 0.00 | 0.00 | 71 | 1014.7 |
| 20260508172058 | 22 | 153 | 3.2 | 6.4 | 0.00 | 0.00 | 0.00 | 73 | 1014.9 |
| 20260508171118 | 21 | 170 | 8.0 | 11.3 | 0.00 | 0.00 | 0.00 | 73 | 1015.0 |
| 20260508170033 | 22 | 157 | 4.8 | 6.4 | 0.00 | 0.00 | 0.00 | 71 | 1014.9 |
| 20260508165019 | 22 | 132 | 4.8 | 9.7 | 0.00 | 0.00 | 0.00 | 72 | 1015.1 |
| 20260508164023 | 21 | 153 | 6.4 | 8.0 | 0.00 | 0.00 | 0.00 | 72 | 1015.2 |
| 20260508163027 | 21 | 148 | 6.4 | 11.3 | 0.00 | 0.00 | 0.00 | 72 | 1015.5 |